Time;durP1;ratioP1;P1;durP2;ratioP2;P2;SDS_P1;SDS_P2;PMS_P1;PMS_P2;Temp;Humidity;BMP_temperature;BMP_pressure;BME280_temperature;BME280_humidity;BME280_pressure;Samples;Min_cycle;Max_cycle;Signal;HPM_P1;HPM_P2
2023/09/10 00:01:47;;;;;;;3.25;2.03;;;15.50;99.90;;;;;;4966846;28;20267;-78
2023/09/10 00:04:13;;;;;;;2.58;2.38;;;15.50;99.90;;;;;;4968913;28;20116;-77
2023/09/10 00:06:40;;;;;;;3.15;2.42;;;15.50;99.90;;;;;;4963541;28;20499;-77
2023/09/10 00:09:08;;;;;;;3.22;2.53;;;15.40;99.90;;;;;;4963569;28;20047;-77
2023/09/10 00:11:34;;;;;;;3.22;2.80;;;15.20;99.90;;;;;;4964020;28;20670;-76
2023/09/10 00:14:00;;;;;;;3.30;2.45;;;15.10;99.90;;;;;;4965560;28;20035;-77
2023/09/10 00:16:25;;;;;;;4.13;3.22;;;15.10;99.90;;;;;;4950619;28;20496;-77
2023/09/10 00:18:51;;;;;;;3.33;2.85;;;15.10;99.90;;;;;;4964378;28;20050;-77
2023/09/10 00:21:16;;;;;;;4.18;2.95;;;15.10;99.90;;;;;;4966484;28;20045;-77
2023/09/10 00:23:42;;;;;;;3.50;2.78;;;15.00;99.90;;;;;;4966846;28;20043;-76
2023/09/10 00:26:09;;;;;;;2.95;2.65;;;15.10;99.90;;;;;;4948276;28;21954;-77
2023/09/10 00:28:35;;;;;;;3.58;2.70;;;15.10;99.90;;;;;;4956233;28;20113;-76
2023/09/10 00:31:02;;;;;;;3.20;2.90;;;15.10;99.90;;;;;;4968707;28;20042;-76
2023/09/10 00:33:28;;;;;;;3.55;2.72;;;15.20;99.90;;;;;;4962245;28;20086;-77
2023/09/10 00:35:53;;;;;;;4.20;3.00;;;15.20;99.90;;;;;;4974045;28;20700;-77
2023/09/10 00:38:19;;;;;;;2.70;2.50;;;15.20;99.90;;;;;;4971552;28;20084;-76
2023/09/10 00:40:45;;;;;;;5.03;3.13;;;15.20;99.90;;;;;;4965803;28;20787;-77
2023/09/10 00:43:10;;;;;;;3.00;2.70;;;15.20;99.90;;;;;;4964301;28;20046;-76
2023/09/10 00:45:36;;;;;;;4.15;2.83;;;15.10;99.90;;;;;;4967263;28;20034;-77
2023/09/10 00:48:02;;;;;;;2.95;2.55;;;15.00;99.90;;;;;;4963810;28;20459;-76
2023/09/10 00:50:28;;;;;;;4.57;2.70;;;14.90;99.90;;;;;;4954494;28;20484;-76
2023/09/10 00:52:57;;;;;;;4.38;3.05;;;14.90;99.90;;;;;;4964738;28;20086;-76
2023/09/10 00:55:24;;;;;;;3.40;3.10;;;14.90;99.90;;;;;;4966963;28;20062;-76
2023/09/10 00:57:50;;;;;;;3.65;3.00;;;14.90;99.90;;;;;;4964897;28;21144;-76
2023/09/10 01:00:16;;;;;;;3.63;3.05;;;14.90;99.90;;;;;;4969830;28;20120;-76
2023/09/10 01:02:43;;;;;;;5.22;2.90;;;15.00;99.90;;;;;;4967475;28;20129;-76
2023/09/10 01:05:11;;;;;;;4.65;2.97;;;15.00;99.90;;;;;;4967897;28;20034;-76
2023/09/10 01:07:37;;;;;;;4.13;2.97;;;15.10;99.90;;;;;;4962886;28;20035;-77
2023/09/10 01:10:03;;;;;;;3.72;3.35;;;15.10;99.90;;;;;;4940596;28;20755;-77
2023/09/10 01:13:01;;;;;;;3.17;2.50;;;15.10;99.90;;;;;;4968578;28;20105;-77
2023/09/10 01:15:34;;;;;;;3.22;2.75;;;15.00;99.90;;;;;;4903914;29;20122;-77
2023/09/10 01:18:10;;;;;;;3.28;2.85;;;15.00;99.90;;;;;;4908005;29;20121;-77
2023/09/10 01:20:54;;;;;;;3.83;3.15;;;14.90;99.90;;;;;;4907760;29;20043;-77
2023/09/10 01:23:31;;;;;;;3.58;3.13;;;14.90;99.90;;;;;;4909492;29;20035;-77
2023/09/10 01:25:56;;;;;;;3.67;2.95;;;14.90;99.90;;;;;;4909793;29;20668;-77
2023/09/10 01:28:22;;;;;;;3.60;2.70;;;15.00;99.90;;;;;;4911173;29;20090;-76
2023/09/10 01:30:48;;;;;;;2.85;2.50;;;14.90;99.90;;;;;;4903899;29;25530;-77
2023/09/10 01:33:21;;;;;;;2.75;2.47;;;14.70;99.90;;;;;;4911577;29;20051;-78
2023/09/10 01:36:09;;;;;;;3.00;2.30;;;14.70;99.90;;;;;;4903878;29;20083;-77
2023/09/10 01:38:47;;;;;;;2.85;2.58;;;14.60;99.90;;;;;;4903922;29;20035;-77
2023/09/10 01:41:15;;;;;;;3.50;2.88;;;14.50;99.90;;;;;;4906608;29;20584;-78
2023/09/10 01:43:41;;;;;;;3.03;2.67;;;14.50;99.90;;;;;;4904588;29;20171;-78
2023/09/10 01:46:08;;;;;;;4.03;2.95;;;14.50;99.90;;;;;;4897136;29;20036;-76
2023/09/10 01:48:34;;;;;;;3.30;2.97;;;14.60;99.90;;;;;;4900707;29;20051;-76
2023/09/10 01:51:00;;;;;;;5.53;3.03;;;14.60;99.90;;;;;;4941445;28;20035;-77
2023/09/10 01:53:25;;;;;;;5.55;2.85;;;14.60;99.90;;;;;;4970106;28;20073;-77
2023/09/10 01:55:52;;;;;;;3.45;3.00;;;14.60;99.90;;;;;;4965492;28;20039;-76
2023/09/10 01:58:17;;;;;;;3.72;2.97;;;14.60;99.90;;;;;;4967345;28;20615;-77
2023/09/10 02:00:45;;;;;;;4.30;3.00;;;14.60;99.90;;;;;;4962295;28;20114;-77
2023/09/10 02:03:10;;;;;;;3.25;2.88;;;14.60;99.90;;;;;;4971795;28;20026;-77
2023/09/10 02:05:36;;;;;;;5.30;2.80;;;14.70;99.90;;;;;;4960665;28;20109;-78
2023/09/10 02:08:03;;;;;;;3.97;2.58;;;14.60;99.90;;;;;;4972646;28;20121;-78
2023/09/10 02:10:28;;;;;;;2.17;1.98;;;14.50;99.90;;;;;;4958758;28;20542;-78
2023/09/10 02:12:54;;;;;;;2.83;2.63;;;14.40;99.90;;;;;;4973164;28;20105;-80
2023/09/10 02:15:19;;;;;;;3.10;2.70;;;14.40;99.90;;;;;;4964791;28;20467;-76
2023/09/10 02:17:45;;;;;;;5.50;2.35;;;14.40;99.90;;;;;;4960350;28;20042;-77
2023/09/10 02:20:11;;;;;;;3.60;2.40;;;14.50;99.90;;;;;;4965009;28;20038;-78
2023/09/10 02:22:41;;;;;;;4.82;2.75;;;14.50;99.90;;;;;;4949899;28;20692;-78
2023/09/10 02:25:08;;;;;;;4.38;2.78;;;14.50;99.90;;;;;;4959641;28;20042;-78
2023/09/10 02:27:35;;;;;;;3.83;2.95;;;14.50;99.90;;;;;;4968604;28;20041;-76
2023/09/10 02:30:05;;;;;;;5.10;3.10;;;14.40;99.90;;;;;;4962257;28;20609;-76
2023/09/10 02:32:32;;;;;;;2.58;2.38;;;14.40;99.90;;;;;;4973577;28;20038;-76
2023/09/10 02:34:57;;;;;;;3.42;2.00;;;14.40;99.90;;;;;;4967733;28;20043;-76
2023/09/10 02:37:23;;;;;;;2.75;2.40;;;14.40;99.90;;;;;;4967075;28;20045;-76
2023/09/10 02:39:48;;;;;;;3.30;2.92;;;14.30;99.90;;;;;;4966326;28;20437;-77
2023/09/10 02:42:14;;;;;;;3.88;2.83;;;14.20;99.90;;;;;;4975974;28;20038;-76
2023/09/10 02:44:40;;;;;;;3.15;2.30;;;14.20;99.90;;;;;;4965256;28;20070;-75
2023/09/10 02:47:06;;;;;;;2.80;2.45;;;14.20;99.90;;;;;;4966292;28;20552;-76
2023/09/10 02:49:33;;;;;;;2.50;2.30;;;14.20;99.90;;;;;;4964965;28;20047;-76
2023/09/10 02:51:58;;;;;;;3.80;2.30;;;14.20;99.90;;;;;;4971946;28;20038;-77
2023/09/10 02:54:24;;;;;;;3.15;2.70;;;14.20;99.90;;;;;;4961835;28;20616;-77
2023/09/10 02:56:50;;;;;;;2.42;2.22;;;14.20;99.90;;;;;;4960592;28;20038;-77
2023/09/10 02:59:34;;;;;;;3.10;2.80;;;14.20;99.90;;;;;;4968570;28;20455;-77
2023/09/10 03:01:59;;;;;;;2.67;2.22;;;14.30;99.90;;;;;;4963911;28;20053;-77
2023/09/10 03:04:25;;;;;;;3.75;2.70;;;14.30;99.90;;;;;;4968010;28;20046;-77
2023/09/10 03:06:51;;;;;;;5.40;3.17;;;14.30;99.90;;;;;;4970378;28;20050;-77
2023/09/10 03:09:17;;;;;;;5.15;2.67;;;14.30;99.90;;;;;;4969104;28;20058;-76
2023/09/10 03:11:44;;;;;;;2.33;1.83;;;14.30;99.90;;;;;;4967452;28;20116;-77
2023/09/10 03:14:09;;;;;;;2.38;2.10;;;14.20;99.90;;;;;;4965469;28;20049;-76
2023/09/10 03:16:38;;;;;;;2.95;2.20;;;14.20;99.90;;;;;;4964148;28;20038;-75
2023/09/10 03:19:04;;;;;;;3.20;2.70;;;14.10;99.90;;;;;;4968161;28;20674;-77
2023/09/10 03:21:30;;;;;;;2.55;2.10;;;14.10;99.90;;;;;;4972683;28;20030;-76
2023/09/10 03:23:56;;;;;;;2.85;2.35;;;14.00;99.90;;;;;;4956183;28;20475;-78
2023/09/10 03:26:22;;;;;;;2.40;1.83;;;14.00;99.90;;;;;;4967702;28;20141;-77
2023/09/10 03:28:48;;;;;;;3.58;2.30;;;14.00;99.90;;;;;;4968241;28;20205;-78
2023/09/10 03:31:14;;;;;;;3.60;2.30;;;13.90;99.90;;;;;;4961490;28;20113;-76
2023/09/10 03:33:40;;;;;;;4.03;2.35;;;14.00;99.90;;;;;;4969639;28;20046;-77
2023/09/10 03:36:06;;;;;;;4.05;2.53;;;14.00;99.90;;;;;;4967280;28;20038;-77
2023/09/10 03:38:32;;;;;;;2.50;2.30;;;14.10;99.90;;;;;;4968241;28;20525;-77
2023/09/10 03:40:58;;;;;;;3.03;2.75;;;14.10;99.90;;;;;;4973679;28;20550;-77
2023/09/10 03:43:23;;;;;;;4.35;2.10;;;14.10;99.90;;;;;;4971938;28;20039;-78
2023/09/10 03:45:49;;;;;;;1.77;1.67;;;14.10;99.90;;;;;;4962019;28;20045;-77
2023/09/10 03:48:15;;;;;;;1.88;1.70;;;14.00;99.90;;;;;;4965515;28;20034;-78
2023/09/10 03:50:40;;;;;;;2.42;2.20;;;13.90;99.90;;;;;;4965910;28;20042;-78
2023/09/10 03:53:07;;;;;;;4.10;2.28;;;13.80;99.90;;;;;;4967005;28;20030;-78
2023/09/10 03:55:33;;;;;;;3.72;2.53;;;13.70;99.90;;;;;;4965749;28;20681;-77
2023/09/10 03:57:58;;;;;;;2.35;2.15;;;13.60;99.90;;;;;;4967222;28;20092;-77
2023/09/10 04:00:24;;;;;;;2.30;2.10;;;13.60;99.90;;;;;;4955966;28;20050;-77
2023/09/10 04:02:50;;;;;;;2.63;2.15;;;13.70;99.90;;;;;;4971487;28;21093;-77
2023/09/10 04:05:16;;;;;;;2.85;2.10;;;13.70;99.90;;;;;;4973794;28;20114;-76
2023/09/10 04:07:41;;;;;;;3.35;2.67;;;13.70;99.90;;;;;;4971343;28;20046;-76
2023/09/10 04:10:08;;;;;;;3.22;2.40;;;13.70;99.90;;;;;;4963357;28;20625;-76
2023/09/10 04:12:34;;;;;;;2.10;1.90;;;13.70;99.90;;;;;;4969393;28;20101;-76
2023/09/10 04:15:00;;;;;;;3.20;1.98;;;13.70;99.90;;;;;;4966570;28;20035;-76
2023/09/10 04:17:28;;;;;;;3.20;2.25;;;13.60;99.90;;;;;;4966681;28;20036;-77
2023/09/10 04:19:57;;;;;;;2.22;2.03;;;13.60;99.90;;;;;;4966782;28;20038;-78
2023/09/10 04:22:23;;;;;;;2.90;2.60;;;13.60;99.90;;;;;;4969772;28;20452;-77
2023/09/10 04:24:49;;;;;;;2.42;2.22;;;13.70;99.90;;;;;;4970201;28;20043;-76
2023/09/10 04:27:15;;;;;;;3.83;2.33;;;13.70;99.90;;;;;;4963766;28;20141;-74
2023/09/10 04:29:40;;;;;;;4.75;2.90;;;13.70;99.90;;;;;;4965878;28;21227;-76
2023/09/10 04:32:06;;;;;;;3.97;2.47;;;13.70;99.90;;;;;;4962460;28;20034;-76
2023/09/10 04:34:32;;;;;;;2.85;2.20;;;13.70;99.90;;;;;;4967286;28;20073;-77
2023/09/10 04:36:57;;;;;;;3.15;2.40;;;13.80;99.90;;;;;;4971508;28;20038;-77
2023/09/10 04:39:23;;;;;;;4.63;2.22;;;13.80;99.90;;;;;;4969803;28;21067;-77
2023/09/10 04:41:49;;;;;;;4.93;2.75;;;13.80;99.90;;;;;;4964906;28;20899;-77
2023/09/10 04:44:16;;;;;;;2.63;2.40;;;13.90;99.90;;;;;;4966209;28;20061;-77
2023/09/10 04:46:41;;;;;;;2.75;2.08;;;13.90;99.90;;;;;;4963271;28;20042;-77
2023/09/10 04:49:07;;;;;;;3.33;1.83;;;13.90;99.90;;;;;;4974286;28;20395;-77
2023/09/10 04:51:33;;;;;;;2.45;2.15;;;13.90;99.90;;;;;;4966983;28;20141;-77
2023/09/10 04:53:59;;;;;;;2.65;2.28;;;13.90;99.90;;;;;;4965783;28;20105;-77
2023/09/10 04:56:24;;;;;;;2.70;2.03;;;14.00;99.90;;;;;;4962577;28;20547;-77
2023/09/10 04:58:50;;;;;;;3.85;2.33;;;13.90;99.90;;;;;;4970101;28;20053;-77
2023/09/10 05:01:16;;;;;;;2.67;2.15;;;13.90;99.90;;;;;;4959139;28;20466;-77
2023/09/10 05:03:42;;;;;;;2.85;2.58;;;14.00;99.90;;;;;;4947692;28;20039;-78
2023/09/10 05:06:08;;;;;;;2.35;2.10;;;14.10;99.90;;;;;;4965724;28;20051;-78
2023/09/10 05:08:34;;;;;;;2.80;2.60;;;14.10;99.90;;;;;;4960417;28;20040;-77
2023/09/10 05:11:00;;;;;;;3.28;2.58;;;14.20;99.90;;;;;;4956317;28;21634;-75
2023/09/10 05:13:26;;;;;;;5.38;2.78;;;14.30;99.90;;;;;;4964123;28;20121;-76
2023/09/10 05:15:57;;;;;;;3.58;2.70;;;14.40;99.90;;;;;;4964866;28;20508;-76
2023/09/10 05:18:26;;;;;;;5.10;2.83;;;14.50;99.90;;;;;;4960203;28;20045;-75
2023/09/10 05:20:53;;;;;;;4.97;3.00;;;14.60;99.90;;;;;;4966174;28;20047;-75
2023/09/10 05:23:22;;;;;;;4.72;2.63;;;14.80;99.90;;;;;;4964546;28;21608;-75
2023/09/10 05:25:49;;;;;;;4.70;2.70;;;14.90;99.90;;;;;;4960071;28;20496;-73
2023/09/10 05:28:15;;;;;;;3.58;2.85;;;15.00;99.90;;;;;;4960954;28;20042;-75
2023/09/10 05:30:41;;;;;;;5.80;3.42;;;15.00;99.90;;;;;;4966059;28;20054;-76
2023/09/10 05:33:06;;;;;;;3.65;2.88;;;15.10;99.90;;;;;;4960495;28;20038;-64
2023/09/10 05:35:32;;;;;;;5.22;3.05;;;15.20;99.90;;;;;;4957401;28;20046;-76
2023/09/10 05:37:58;;;;;;;5.80;2.67;;;15.30;99.90;;;;;;4962123;28;20041;-75
2023/09/10 05:40:25;;;;;;;5.90;2.83;;;15.40;99.90;;;;;;4959824;28;20069;-76
2023/09/10 05:42:51;;;;;;;19.88;3.30;;;15.60;99.90;;;;;;4959425;28;20102;-76
2023/09/10 05:45:17;;;;;;;3.20;2.72;;;15.80;99.90;;;;;;4940135;28;20075;-76
2023/09/10 05:47:42;;;;;;;3.05;2.78;;;16.00;99.90;;;;;;4953554;28;20045;-74
2023/09/10 05:50:08;;;;;;;4.78;2.55;;;16.30;99.90;;;;;;4969787;28;20047;-65
2023/09/10 05:52:34;;;;;;;3.97;2.95;;;16.40;99.90;;;;;;4963217;28;20034;-65
2023/09/10 05:55:00;;;;;;;6.60;2.65;;;16.50;99.90;;;;;;4964140;28;20110;-65
2023/09/10 05:57:25;;;;;;;5.10;3.08;;;16.60;99.90;;;;;;4969744;28;20097;-65
2023/09/10 05:59:51;;;;;;;5.47;3.08;;;16.80;99.90;;;;;;4958838;28;20098;-65
2023/09/10 06:02:17;;;;;;;3.97;3.00;;;17.00;99.90;;;;;;4961947;28;20315;-66
2023/09/10 06:04:42;;;;;;;24.48;4.60;;;17.20;99.90;;;;;;4956156;28;21417;-64
2023/09/10 06:07:08;;;;;;;6.07;3.20;;;17.40;99.90;;;;;;4960484;28;20058;-82
2023/09/10 06:09:34;;;;;;;14.82;3.78;;;17.60;99.90;;;;;;4964332;28;20046;-82
2023/09/10 06:12:02;;;;;;;6.40;3.25;;;17.80;99.90;;;;;;4972711;28;20523;-82
2023/09/10 06:14:30;;;;;;;3.60;3.30;;;18.00;99.90;;;;;;4969168;28;20074;-81
2023/09/10 06:16:56;;;;;;;4.63;2.97;;;18.20;99.90;;;;;;4970159;28;20033;-80
2023/09/10 06:19:22;;;;;;;3.15;2.85;;;18.40;99.90;;;;;;4973327;28;20096;-80
2023/09/10 06:21:47;;;;;;;10.38;3.83;;;18.60;99.90;;;;;;4956404;28;20063;-85
2023/09/10 06:24:13;;;;;;;4.20;3.80;;;18.70;99.90;;;;;;4965287;28;20030;-81
2023/09/10 06:26:39;;;;;;;5.15;3.80;;;18.90;99.90;;;;;;4955579;28;20038;-64
2023/09/10 06:29:05;;;;;;;4.28;3.88;;;19.00;99.90;;;;;;4961566;28;20058;-64
2023/09/10 06:31:30;;;;;;;5.07;4.10;;;19.10;99.90;;;;;;4961546;28;20019;-64
2023/09/10 06:33:57;;;;;;;6.18;4.05;;;19.20;99.90;;;;;;4958282;28;20283;-65
2023/09/10 06:36:23;;;;;;;5.47;4.50;;;19.30;99.90;;;;;;4946834;28;20566;-65
2023/09/10 06:38:48;;;;;;;4.50;4.05;;;19.50;99.90;;;;;;4966195;28;20038;-65
2023/09/10 06:41:15;;;;;;;4.22;3.75;;;19.60;99.90;;;;;;4964960;28;20038;-83
2023/09/10 06:43:41;;;;;;;10.50;3.95;;;19.80;99.90;;;;;;4974131;28;20530;-65
2023/09/10 06:46:07;;;;;;;10.95;3.90;;;20.00;99.90;;;;;;4972876;28;20487;-65
2023/09/10 06:48:32;;;;;;;4.65;4.25;;;20.20;99.90;;;;;;4944467;28;20070;-65
2023/09/10 06:51:00;;;;;;;5.60;4.20;;;20.40;99.90;;;;;;4970559;28;20042;-66
2023/09/10 06:53:27;;;;;;;5.47;3.67;;;20.60;99.90;;;;;;4965135;28;20046;-65
2023/09/10 06:55:54;;;;;;;4.15;3.75;;;20.80;99.90;;;;;;4956477;28;20045;-66
2023/09/10 06:58:20;;;;;;;4.25;3.75;;;21.00;99.90;;;;;;4958800;28;20042;-65
2023/09/10 07:00:45;;;;;;;4.05;3.67;;;21.20;99.90;;;;;;4967170;28;20112;-65
2023/09/10 08:00:40;;;;;;;3.80;3.22;;;24.00;99.90;;;;;;4977712;28;20080;-75
2023/09/10 08:03:06;;;;;;;4.93;3.55;;;24.00;99.90;;;;;;4970241;28;20118;-76
2023/09/10 08:05:36;;;;;;;8.85;3.60;;;24.00;99.90;;;;;;4974240;28;20081;-76
2023/09/10 08:08:05;;;;;;;4.78;3.42;;;23.90;99.90;;;;;;4961897;28;20543;-75
2023/09/10 08:10:31;;;;;;;4.50;3.30;;;24.00;99.90;;;;;;4961429;28;20512;-76
2023/09/10 08:12:57;;;;;;;5.20;3.30;;;24.10;99.90;;;;;;4953533;28;20049;-76
2023/09/10 08:15:23;;;;;;;8.43;4.15;;;24.20;99.90;;;;;;4963212;28;20034;-75
2023/09/10 08:17:54;;;;;;;4.43;3.30;;;24.30;99.90;;;;;;4967536;28;20039;-75
2023/09/10 08:20:20;;;;;;;9.02;3.58;;;24.30;99.90;;;;;;4961167;28;20737;-75
2023/09/10 08:22:46;;;;;;;4.70;3.15;;;24.40;99.90;;;;;;4964017;28;20037;-76
2023/09/10 08:25:12;;;;;;;7.10;3.58;;;24.50;99.90;;;;;;4972817;28;20045;-75
2023/09/10 08:27:38;;;;;;;4.22;3.20;;;24.60;99.90;;;;;;4960076;28;21210;-75
2023/09/10 08:30:05;;;;;;;6.53;3.65;;;24.80;99.90;;;;;;4968790;28;20054;-75
2023/09/10 08:32:40;;;;;;;6.55;3.55;;;24.80;99.90;;;;;;4973588;28;20415;-75
2023/09/10 08:35:06;;;;;;;4.47;3.15;;;24.90;99.90;;;;;;4975053;28;20050;-75
2023/09/10 08:37:32;;;;;;;6.30;3.72;;;25.00;99.90;;;;;;4978372;28;20124;-75
2023/09/10 08:39:58;;;;;;;3.25;2.95;;;25.00;99.90;;;;;;4970005;28;20039;-75
2023/09/10 08:42:42;;;;;;;3.83;3.28;;;25.10;99.90;;;;;;4963264;28;20672;-74
2023/09/10 08:45:10;;;;;;;5.65;3.22;;;25.30;99.90;;;;;;4970506;28;20121;-76
2023/09/10 08:47:40;;;;;;;4.50;3.38;;;25.40;99.90;;;;;;4975991;28;20113;-75
2023/09/10 08:50:11;;;;;;;3.75;2.67;;;25.40;99.90;;;;;;4971197;28;20046;-67
2023/09/10 08:52:42;;;;;;;4.25;3.13;;;25.40;99.90;;;;;;4971232;28;20720;-66
2023/09/10 08:55:08;;;;;;;3.85;3.40;;;25.50;99.90;;;;;;4972329;28;20070;-66
2023/09/10 08:57:39;;;;;;;3.20;2.90;;;25.40;99.90;;;;;;4969022;28;20416;-66
2023/09/10 09:00:10;;;;;;;4.47;3.28;;;25.50;99.90;;;;;;4972852;28;20134;-66
2023/09/10 09:02:37;;;;;;;3.43;3.03;;;25.60;99.90;;;;;;4973868;28;20042;-66
2023/09/10 09:05:04;;;;;;;4.47;2.95;;;25.70;99.90;;;;;;4974520;28;20043;-66
2023/09/10 09:07:34;;;;;;;3.40;2.72;;;25.80;99.90;;;;;;4974410;28;20062;-65
2023/09/10 09:10:03;;;;;;;4.53;2.97;;;25.90;99.90;;;;;;4969298;28;20538;-66
2023/09/10 09:12:32;;;;;;;5.53;3.28;;;25.90;99.90;;;;;;4958560;28;20057;-66
2023/09/10 09:15:00;;;;;;;7.13;2.75;;;26.00;99.90;;;;;;4974121;28;20045;-66
2023/09/10 09:17:27;;;;;;;5.18;3.17;;;26.10;99.90;;;;;;4977721;28;20033;-66
2023/09/10 09:19:54;;;;;;;7.35;2.78;;;26.20;99.90;;;;;;4959572;28;20034;-66
2023/09/10 09:22:22;;;;;;;3.42;3.13;;;26.20;99.90;;;;;;4958138;28;20074;-67
2023/09/10 09:24:48;;;;;;;3.35;3.03;;;26.30;99.90;;;;;;4966167;28;20039;-65
2023/09/10 09:27:15;;;;;;;4.78;2.88;;;26.30;99.90;;;;;;4959837;28;20043;-66
2023/09/10 09:29:41;;;;;;;4.18;3.33;;;26.40;99.90;;;;;;4959595;28;20043;-66
2023/09/10 09:32:07;;;;;;;2.63;2.35;;;26.50;99.90;;;;;;4973500;28;20030;-66
2023/09/10 09:34:33;;;;;;;3.28;2.65;;;26.60;99.90;;;;;;4970813;28;20106;-66
2023/09/10 09:37:00;;;;;;;3.33;2.70;;;26.60;99.90;;;;;;4962949;28;20054;-66
2023/09/10 09:39:26;;;;;;;5.18;2.78;;;26.70;99.90;;;;;;4962832;28;20044;-66
2023/09/10 09:41:53;;;;;;;5.00;2.75;;;26.80;99.90;;;;;;4962137;28;20939;-66
2023/09/10 09:44:19;;;;;;;3.95;2.60;;;26.90;99.90;;;;;;4961288;28;20110;-66
2023/09/10 09:46:47;;;;;;;3.15;2.72;;;26.90;99.90;;;;;;4966473;28;20077;-75
2023/09/10 09:49:13;;;;;;;4.13;2.78;;;26.90;99.90;;;;;;4970065;28;20043;-75
2023/09/10 09:51:40;;;;;;;3.60;2.97;;;27.00;99.90;;;;;;4957327;28;20038;-75
2023/09/10 09:54:09;;;;;;;5.35;2.80;;;27.10;99.90;;;;;;4968866;28;20254;-74
2023/09/10 09:56:37;;;;;;;6.25;3.03;;;27.20;99.30;;;;;;4968418;28;20034;-75
2023/09/10 09:59:03;;;;;;;2.90;2.70;;;27.20;99.30;;;;;;4963677;28;20047;-75
2023/09/10 10:01:28;;;;;;;5.57;3.20;;;27.20;98.90;;;;;;4964445;28;20069;-74
2023/09/10 10:03:56;;;;;;;3.00;2.70;;;27.30;99.80;;;;;;4962353;28;20110;-75
2023/09/10 10:06:22;;;;;;;6.95;2.83;;;27.40;98.20;;;;;;4969385;28;20062;-66
2023/09/10 10:08:49;;;;;;;3.25;2.80;;;27.50;97.90;;;;;;4966050;28;20042;-66
2023/09/10 10:11:31;;;;;;;3.03;2.72;;;27.50;97.90;;;;;;4950880;28;20087;-66
2023/09/10 10:13:59;;;;;;;2.80;2.58;;;27.50;96.80;;;;;;4967431;28;20055;-66
2023/09/10 10:16:29;;;;;;;4.85;2.55;;;27.60;96.80;;;;;;4969219;28;20713;-66
2023/09/10 10:18:55;;;;;;;4.45;2.97;;;27.70;96.30;;;;;;4966339;28;20046;-65
2023/09/10 10:21:24;;;;;;;4.05;2.90;;;27.80;96.70;;;;;;4947539;28;20089;-66
2023/09/10 10:23:56;;;;;;;2.90;2.30;;;27.90;96.90;;;;;;4966570;28;20079;-65
2023/09/10 10:26:22;;;;;;;4.30;2.42;;;27.90;96.10;;;;;;4967242;28;20547;-66
2023/09/10 10:28:51;;;;;;;5.15;2.83;;;28.00;96.30;;;;;;4958139;28;20657;-66
2023/09/10 10:31:21;;;;;;;4.15;2.40;;;28.10;96.00;;;;;;4966658;28;20043;-65
2023/09/10 10:34:22;;;;;;;6.25;2.60;;;28.10;93.80;;;;;;4968234;28;20030;-66
2023/09/10 10:37:24;;;;;;;3.58;2.50;;;28.00;93.60;;;;;;4967021;28;20653;-66
2023/09/10 10:39:58;;;;;;;;;;;28.10;94.30;;;;;;4948661;28;20038;-65
2023/09/10 10:42:52;;;;;;;5.50;2.75;;;28.20;93.50;;;;;;4971770;28;19913;-66
2023/09/10 10:45:18;;;;;;;3.15;2.50;;;28.20;95.70;;;;;;4965612;28;21373;-65
2023/09/10 10:47:46;;;;;;;4.55;2.83;;;28.40;95.20;;;;;;4967216;28;20102;-66
2023/09/10 10:50:13;;;;;;;4.97;2.40;;;28.50;94.10;;;;;;4977772;28;20077;-66
2023/09/10 10:52:57;;;;;;;4.50;2.75;;;28.60;93.70;;;;;;4964027;28;20670;-66
2023/09/10 10:55:25;;;;;;;4.53;2.97;;;28.50;91.20;;;;;;4975424;28;20034;-66
2023/09/10 10:57:54;;;;;;;2.53;2.30;;;28.30;92.20;;;;;;4961857;28;20034;-66
2023/09/10 11:00:21;;;;;;;5.65;2.53;;;28.40;92.90;;;;;;4974379;28;20050;-66
2023/09/10 11:03:13;;;;;;;3.53;2.58;;;28.50;92.70;;;;;;4966347;28;21714;-76
2023/09/10 11:08:29;;;;;;;4.60;2.63;;;28.60;92.00;;;;;;4976616;28;20038;-77
2023/09/10 11:10:55;;;;;;;3.35;2.60;;;28.80;90.70;;;;;;4975435;28;20057;-77
2023/09/10 11:13:24;;;;;;;2.40;2.20;;;28.80;91.80;;;;;;4969150;28;20038;-76
2023/09/10 11:16:05;;;;;;;11.90;2.80;;;28.90;91.20;;;;;;4978135;28;20043;-75
2023/09/10 11:18:37;;;;;;;5.13;2.97;;;28.90;90.60;;;;;;4980537;28;20045;-73
2023/09/10 11:21:02;;;;;;;3.95;2.80;;;29.00;90.40;;;;;;4977768;28;20946;-74
2023/09/10 11:23:28;;;;;;;7.45;2.88;;;29.00;90.30;;;;;;4967819;28;20168;-73
2023/09/10 11:26:14;;;;;;;3.15;2.83;;;29.00;90.40;;;;;;4976662;28;20400;-72
2023/09/10 11:28:46;;;;;;;4.72;2.60;;;29.00;91.10;;;;;;4977245;28;20047;-73
2023/09/10 11:31:33;;;;;;;2.97;2.45;;;29.10;91.80;;;;;;4968047;28;20038;-74
2023/09/10 11:34:17;;;;;;;3.30;2.88;;;29.20;88.60;;;;;;4963629;28;20175;-73
2023/09/10 11:36:51;;;;;;;4.15;2.85;;;29.00;89.10;;;;;;4977685;28;21619;-74
2023/09/10 11:39:18;;;;;;;3.03;2.45;;;29.00;91.10;;;;;;4978707;28;20071;-74
2023/09/10 11:41:45;;;;;;;4.22;2.33;;;29.20;89.20;;;;;;4959998;28;20837;-73
2023/09/10 11:44:11;;;;;;;3.15;2.47;;;29.20;90.90;;;;;;4967385;28;20464;-73
2023/09/10 11:46:37;;;;;;;5.25;2.42;;;29.30;90.00;;;;;;4973157;28;20041;-74
2023/09/10 11:49:03;;;;;;;4.43;2.72;;;29.30;90.70;;;;;;4977546;28;20046;-75
2023/09/10 11:51:30;;;;;;;3.75;2.75;;;29.40;89.10;;;;;;4969577;28;20100;-75
2023/09/10 11:53:58;;;;;;;3.45;2.45;;;29.50;88.70;;;;;;4970836;28;20499;-74
2023/09/10 11:56:24;;;;;;;2.70;2.42;;;29.50;87.40;;;;;;4960292;28;20484;-63
2023/09/10 11:58:50;;;;;;;5.25;2.40;;;29.50;88.80;;;;;;4974073;28;20046;-64
2023/09/10 12:01:16;;;;;;;4.93;2.60;;;29.60;87.90;;;;;;4971706;28;20046;-64
2023/09/10 12:03:44;;;;;;;3.75;2.30;;;29.50;86.90;;;;;;4964435;28;20104;-65
2023/09/10 12:06:11;;;;;;;3.38;2.50;;;29.50;84.10;;;;;;4948430;28;20030;-64
2023/09/10 12:08:37;;;;;;;3.22;2.47;;;29.40;85.50;;;;;;4969278;28;20078;-65
2023/09/10 12:11:06;;;;;;;3.80;2.83;;;29.50;86.10;;;;;;4965449;28;20146;-65
2023/09/10 12:13:33;;;;;;;4.40;2.60;;;29.60;86.60;;;;;;4963168;28;20045;-65
2023/09/10 12:15:59;;;;;;;2.92;2.15;;;29.80;87.10;;;;;;4953959;28;20045;-74
2023/09/10 12:18:26;;;;;;;3.33;2.25;;;29.70;80.00;;;;;;4968259;28;20105;-74
2023/09/10 12:20:52;;;;;;;2.80;2.30;;;29.60;82.00;;;;;;4966177;28;20046;-74
2023/09/10 12:23:18;;;;;;;3.08;2.45;;;29.60;82.20;;;;;;4966290;28;20105;-74
2023/09/10 12:25:43;;;;;;;5.40;2.33;;;29.70;82.30;;;;;;4960728;28;20049;-74
2023/09/10 12:28:09;;;;;;;2.88;2.50;;;29.80;80.30;;;;;;4970049;28;20050;-73
2023/09/10 12:30:36;;;;;;;2.75;2.30;;;29.80;81.90;;;;;;4968042;28;20058;-74
2023/09/10 12:33:02;;;;;;;2.40;2.20;;;29.80;81.90;;;;;;4977375;28;20121;-75
2023/09/10 12:35:29;;;;;;;4.97;2.25;;;29.90;81.60;;;;;;4972246;28;20101;-75
2023/09/10 12:37:55;;;;;;;2.67;2.30;;;30.00;80.70;;;;;;4972771;28;20377;-74
2023/09/10 12:40:21;;;;;;;3.45;2.00;;;30.10;79.00;;;;;;4969288;28;20045;-72
2023/09/10 12:42:50;;;;;;;6.68;2.67;;;30.00;75.80;;;;;;4971920;28;20747;-74
2023/09/10 12:45:16;;;;;;;3.05;2.13;;;29.90;77.00;;;;;;4972580;28;20033;-75
2023/09/10 12:47:43;;;;;;;4.80;2.47;;;29.90;76.20;;;;;;4969803;28;20486;-74
2023/09/10 12:50:10;;;;;;;3.15;2.30;;;29.90;77.40;;;;;;4976682;28;20058;-74
2023/09/10 12:52:36;;;;;;;6.50;2.75;;;30.00;77.60;;;;;;4969737;28;20043;-74
2023/09/10 12:55:03;;;;;;;3.53;2.17;;;29.90;75.90;;;;;;4972063;28;20066;-74
2023/09/10 12:57:32;;;;;;;2.50;2.10;;;29.90;76.40;;;;;;4962562;28;20038;-74
2023/09/10 12:59:58;;;;;;;4.45;2.35;;;29.80;76.30;;;;;;4973071;28;20077;-74
2023/09/10 13:02:29;;;;;;;2.95;2.20;;;29.80;77.40;;;;;;4949431;28;20042;-74
2023/09/10 13:04:55;;;;;;;2.60;2.40;;;29.80;74.30;;;;;;4961566;28;20186;-74
2023/09/10 13:07:21;;;;;;;6.00;3.30;;;29.70;75.10;;;;;;4975877;28;20133;-74
2023/09/10 13:09:47;;;;;;;2.88;2.00;;;29.70;76.10;;;;;;4974552;28;20058;-65
2023/09/10 13:12:13;;;;;;;3.78;2.38;;;29.80;74.80;;;;;;4953875;28;20030;-65
2023/09/10 13:14:40;;;;;;;2.60;2.40;;;29.80;74.20;;;;;;4964679;28;20831;-64
2023/09/10 13:17:09;;;;;;;2.83;2.42;;;29.90;74.60;;;;;;4970168;28;20097;-65
2023/09/10 13:19:35;;;;;;;2.40;2.20;;;30.00;74.50;;;;;;4955114;28;20435;-65
2023/09/10 13:22:02;;;;;;;2.40;2.20;;;30.10;75.70;;;;;;4966920;28;20038;-64
2023/09/10 13:24:28;;;;;;;2.40;2.20;;;30.10;71.50;;;;;;4963655;28;20043;-64
2023/09/10 13:26:54;;;;;;;2.42;2.22;;;30.00;73.20;;;;;;4976996;28;20062;-64
2023/09/10 13:29:20;;;;;;;5.00;2.47;;;30.00;73.30;;;;;;4977186;28;20500;-74
2023/09/10 13:31:46;;;;;;;2.25;2.13;;;30.10;73.30;;;;;;4970568;28;20046;-73
2023/09/10 13:34:13;;;;;;;2.47;2.28;;;30.10;72.80;;;;;;4967564;28;20173;-74
2023/09/10 13:36:39;;;;;;;2.63;2.10;;;30.10;70.30;;;;;;4973163;28;20515;-74
2023/09/10 13:39:06;;;;;;;3.17;1.92;;;30.00;70.10;;;;;;4966907;28;20029;-74
2023/09/10 13:41:32;;;;;;;6.35;2.60;;;30.00;69.40;;;;;;4971669;28;20077;-74
2023/09/10 13:43:58;;;;;;;7.03;2.58;;;30.10;69.50;;;;;;4969701;28;20121;-73
2023/09/10 13:46:25;;;;;;;3.72;2.17;;;30.30;70.20;;;;;;4971959;28;20034;-73
2023/09/10 13:48:51;;;;;;;2.40;2.20;;;30.40;71.30;;;;;;4969044;28;20034;-73
2023/09/10 13:51:17;;;;;;;5.40;2.45;;;30.60;70.90;;;;;;4972935;28;20038;-74